sensor_id;sensor_type;location;lat;lon;timestamp;P1;durP1;ratioP1;P2;durP2;ratioP2
77384;SDS011;66443;49.122;8.346;2024-03-02T00:00:11;21.40;;;13.67;;
77384;SDS011;66443;49.122;8.346;2024-03-02T00:02:44;19.67;;;14.93;;
77384;SDS011;66443;49.122;8.346;2024-03-02T00:05:10;22.60;;;14.57;;
77384;SDS011;66443;49.122;8.346;2024-03-02T00:07:36;20.13;;;13.97;;
77384;SDS011;66443;49.122;8.346;2024-03-02T00:10:03;19.60;;;15.37;;
77384;SDS011;66443;49.122;8.346;2024-03-02T00:12:30;20.97;;;15.37;;
77384;SDS011;66443;49.122;8.346;2024-03-02T00:14:56;22.57;;;15.53;;
77384;SDS011;66443;49.122;8.346;2024-03-02T00:17:24;19.50;;;15.57;;
77384;SDS011;66443;49.122;8.346;2024-03-02T00:19:49;23.17;;;16.17;;
77384;SDS011;66443;49.122;8.346;2024-03-02T00:22:15;19.10;;;15.37;;
77384;SDS011;66443;49.122;8.346;2024-03-02T00:24:40;19.50;;;15.10;;
77384;SDS011;66443;49.122;8.346;2024-03-02T00:27:05;25.83;;;17.63;;
77384;SDS011;66443;49.122;8.346;2024-03-02T00:29:32;30.50;;;18.77;;
77384;SDS011;66443;49.122;8.346;2024-03-02T00:31:57;21.30;;;16.97;;
77384;SDS011;66443;49.122;8.346;2024-03-02T00:34:23;26.20;;;16.83;;
77384;SDS011;66443;49.122;8.346;2024-03-02T00:36:48;26.03;;;18.23;;
77384;SDS011;66443;49.122;8.346;2024-03-02T00:39:14;32.37;;;19.97;;
77384;SDS011;66443;49.122;8.346;2024-03-02T00:41:41;30.13;;;20.43;;
77384;SDS011;66443;49.122;8.346;2024-03-02T00:44:07;38.30;;;21.83;;
77384;SDS011;66443;49.122;8.346;2024-03-02T00:46:34;36.23;;;21.13;;
77384;SDS011;66443;49.122;8.346;2024-03-02T00:49:00;27.93;;;19.00;;
77384;SDS011;66443;49.122;8.346;2024-03-02T00:51:27;34.27;;;19.63;;
77384;SDS011;66443;49.122;8.346;2024-03-02T00:53:53;25.70;;;16.80;;
77384;SDS011;66443;49.122;8.346;2024-03-02T00:56:20;28.07;;;16.67;;
77384;SDS011;66443;49.122;8.346;2024-03-02T00:58:46;23.53;;;16.07;;
77384;SDS011;66443;49.122;8.346;2024-03-02T01:01:11;23.53;;;17.10;;
77384;SDS011;66443;49.122;8.346;2024-03-02T01:03:36;27.70;;;18.30;;
77384;SDS011;66443;49.122;8.346;2024-03-02T01:06:02;20.93;;;17.47;;
77384;SDS011;66443;49.122;8.346;2024-03-02T01:08:27;22.23;;;17.47;;
77384;SDS011;66443;49.122;8.346;2024-03-02T01:10:53;24.33;;;17.47;;
77384;SDS011;66443;49.122;8.346;2024-03-02T01:13:18;26.87;;;17.20;;
77384;SDS011;66443;49.122;8.346;2024-03-02T01:15:43;24.07;;;17.03;;
77384;SDS011;66443;49.122;8.346;2024-03-02T01:18:08;21.67;;;16.10;;
77384;SDS011;66443;49.122;8.346;2024-03-02T01:20:34;27.07;;;15.63;;
77384;SDS011;66443;49.122;8.346;2024-03-02T01:22:59;24.60;;;16.07;;
77384;SDS011;66443;49.122;8.346;2024-03-02T01:25:24;28.03;;;16.73;;
77384;SDS011;66443;49.122;8.346;2024-03-02T01:27:50;24.73;;;15.70;;
77384;SDS011;66443;49.122;8.346;2024-03-02T01:30:15;22.67;;;16.87;;
77384;SDS011;66443;49.122;8.346;2024-03-02T01:32:40;22.43;;;16.90;;
77384;SDS011;66443;49.122;8.346;2024-03-02T01:35:05;21.57;;;16.53;;
77384;SDS011;66443;49.122;8.346;2024-03-02T01:37:32;26.97;;;17.40;;
77384;SDS011;66443;49.122;8.346;2024-03-02T01:39:57;24.20;;;17.17;;
77384;SDS011;66443;49.122;8.346;2024-03-02T01:42:23;26.83;;;17.33;;
77384;SDS011;66443;49.122;8.346;2024-03-02T01:44:48;23.53;;;16.57;;
77384;SDS011;66443;49.122;8.346;2024-03-02T01:47:13;19.97;;;15.63;;
77384;SDS011;66443;49.122;8.346;2024-03-02T01:49:38;20.63;;;15.97;;
77384;SDS011;66443;49.122;8.346;2024-03-02T01:52:05;23.93;;;16.80;;
77384;SDS011;66443;49.122;8.346;2024-03-02T01:54:31;21.93;;;15.70;;
77384;SDS011;66443;49.122;8.346;2024-03-02T01:56:56;23.60;;;14.88;;
77384;SDS011;66443;49.122;8.346;2024-03-02T01:59:21;18.97;;;15.20;;
77384;SDS011;66443;49.122;8.346;2024-03-02T02:01:47;24.53;;;15.73;;
77384;SDS011;66443;49.122;8.346;2024-03-02T02:04:12;17.33;;;15.37;;
77384;SDS011;66443;49.122;8.346;2024-03-02T02:06:38;19.70;;;15.03;;
77384;SDS011;66443;49.122;8.346;2024-03-02T02:09:03;20.13;;;15.37;;
77384;SDS011;66443;49.122;8.346;2024-03-02T02:11:28;26.53;;;16.30;;
77384;SDS011;66443;49.122;8.346;2024-03-02T02:13:54;24.50;;;16.57;;
77384;SDS011;66443;49.122;8.346;2024-03-02T02:16:20;23.00;;;15.63;;
77384;SDS011;66443;49.122;8.346;2024-03-02T02:18:45;27.77;;;17.37;;
77384;SDS011;66443;49.122;8.346;2024-03-02T02:21:11;31.83;;;17.60;;
77384;SDS011;66443;49.122;8.346;2024-03-02T02:23:36;23.13;;;16.63;;
77384;SDS011;66443;49.122;8.346;2024-03-02T02:26:01;24.93;;;16.63;;
77384;SDS011;66443;49.122;8.346;2024-03-02T02:28:27;26.37;;;16.20;;
77384;SDS011;66443;49.122;8.346;2024-03-02T02:30:54;30.33;;;18.07;;
77384;SDS011;66443;49.122;8.346;2024-03-02T02:33:21;25.87;;;17.13;;
77384;SDS011;66443;49.122;8.346;2024-03-02T02:35:46;26.55;;;16.80;;
77384;SDS011;66443;49.122;8.346;2024-03-02T02:38:11;24.40;;;16.23;;
77384;SDS011;66443;49.122;8.346;2024-03-02T02:40:36;26.67;;;16.40;;
77384;SDS011;66443;49.122;8.346;2024-03-02T02:43:02;27.87;;;16.10;;
77384;SDS011;66443;49.122;8.346;2024-03-02T02:45:27;27.40;;;16.57;;
77384;SDS011;66443;49.122;8.346;2024-03-02T02:47:52;23.93;;;16.30;;
77384;SDS011;66443;49.122;8.346;2024-03-02T02:50:17;28.93;;;18.13;;
77384;SDS011;66443;49.122;8.346;2024-03-02T02:52:43;26.43;;;17.43;;
77384;SDS011;66443;49.122;8.346;2024-03-02T02:55:09;24.67;;;16.23;;
77384;SDS011;66443;49.122;8.346;2024-03-02T02:57:34;24.47;;;15.83;;
77384;SDS011;66443;49.122;8.346;2024-03-02T03:00:02;27.17;;;16.70;;
77384;SDS011;66443;49.122;8.346;2024-03-02T03:02:30;27.50;;;16.87;;
77384;SDS011;66443;49.122;8.346;2024-03-02T03:04:55;22.80;;;15.90;;
77384;SDS011;66443;49.122;8.346;2024-03-02T03:07:22;23.57;;;15.93;;
77384;SDS011;66443;49.122;8.346;2024-03-02T03:09:47;25.93;;;14.80;;
77384;SDS011;66443;49.122;8.346;2024-03-02T03:12:12;19.77;;;14.47;;
77384;SDS011;66443;49.122;8.346;2024-03-02T03:14:37;22.20;;;14.83;;
77384;SDS011;66443;49.122;8.346;2024-03-02T03:17:02;23.13;;;15.57;;
77384;SDS011;66443;49.122;8.346;2024-03-02T03:19:28;25.73;;;15.10;;
77384;SDS011;66443;49.122;8.346;2024-03-02T03:21:53;21.83;;;13.97;;
77384;SDS011;66443;49.122;8.346;2024-03-02T03:24:18;19.63;;;14.27;;
77384;SDS011;66443;49.122;8.346;2024-03-02T03:26:43;22.20;;;14.70;;
77384;SDS011;66443;49.122;8.346;2024-03-02T03:29:08;20.60;;;14.60;;
77384;SDS011;66443;49.122;8.346;2024-03-02T03:31:33;21.07;;;13.23;;
77384;SDS011;66443;49.122;8.346;2024-03-02T03:33:58;18.57;;;13.77;;
77384;SDS011;66443;49.122;8.346;2024-03-02T03:36:24;21.77;;;13.13;;
77384;SDS011;66443;49.122;8.346;2024-03-02T03:38:49;16.52;;;14.05;;
77384;SDS011;66443;49.122;8.346;2024-03-02T03:41:14;22.15;;;14.98;;
77384;SDS011;66443;49.122;8.346;2024-03-02T03:43:40;25.97;;;14.50;;
77384;SDS011;66443;49.122;8.346;2024-03-02T03:46:05;21.30;;;14.33;;
77384;SDS011;66443;49.122;8.346;2024-03-02T03:48:30;22.17;;;14.10;;
77384;SDS011;66443;49.122;8.346;2024-03-02T03:50:56;22.17;;;13.73;;
77384;SDS011;66443;49.122;8.346;2024-03-02T03:53:21;27.57;;;14.67;;
77384;SDS011;66443;49.122;8.346;2024-03-02T03:55:47;20.00;;;15.63;;
77384;SDS011;66443;49.122;8.346;2024-03-02T03:58:14;27.20;;;17.57;;
77384;SDS011;66443;49.122;8.346;2024-03-02T04:00:39;23.30;;;14.97;;
77384;SDS011;66443;49.122;8.346;2024-03-02T04:03:04;26.53;;;14.90;;
77384;SDS011;66443;49.122;8.346;2024-03-02T04:05:29;23.03;;;14.83;;
77384;SDS011;66443;49.122;8.346;2024-03-02T04:07:54;21.20;;;14.13;;
77384;SDS011;66443;49.122;8.346;2024-03-02T04:10:20;21.40;;;15.73;;
77384;SDS011;66443;49.122;8.346;2024-03-02T04:12:45;24.07;;;15.73;;
77384;SDS011;66443;49.122;8.346;2024-03-02T04:15:11;24.57;;;15.17;;
77384;SDS011;66443;49.122;8.346;2024-03-02T04:17:36;18.67;;;14.63;;
77384;SDS011;66443;49.122;8.346;2024-03-02T04:20:01;24.30;;;15.53;;
77384;SDS011;66443;49.122;8.346;2024-03-02T04:22:29;25.53;;;17.50;;
77384;SDS011;66443;49.122;8.346;2024-03-02T04:24:54;18.30;;;15.83;;
77384;SDS011;66443;49.122;8.346;2024-03-02T04:27:19;21.13;;;15.83;;
77384;SDS011;66443;49.122;8.346;2024-03-02T04:29:45;25.17;;;16.13;;
77384;SDS011;66443;49.122;8.346;2024-03-02T04:32:10;22.07;;;15.07;;
77384;SDS011;66443;49.122;8.346;2024-03-02T04:34:35;21.10;;;15.03;;
77384;SDS011;66443;49.122;8.346;2024-03-02T04:37:00;19.60;;;14.47;;
77384;SDS011;66443;49.122;8.346;2024-03-02T04:39:25;22.40;;;15.03;;
77384;SDS011;66443;49.122;8.346;2024-03-02T04:41:51;22.00;;;16.27;;
77384;SDS011;66443;49.122;8.346;2024-03-02T04:44:16;26.83;;;16.87;;
77384;SDS011;66443;49.122;8.346;2024-03-02T04:46:41;20.40;;;15.30;;
77384;SDS011;66443;49.122;8.346;2024-03-02T04:49:07;16.97;;;14.30;;
77384;SDS011;66443;49.122;8.346;2024-03-02T04:51:32;20.83;;;15.27;;
77384;SDS011;66443;49.122;8.346;2024-03-02T04:53:57;18.20;;;13.70;;
77384;SDS011;66443;49.122;8.346;2024-03-02T04:56:22;18.87;;;14.47;;
77384;SDS011;66443;49.122;8.346;2024-03-02T04:58:47;23.17;;;14.20;;
77384;SDS011;66443;49.122;8.346;2024-03-02T05:01:13;34.87;;;21.63;;
77384;SDS011;66443;49.122;8.346;2024-03-02T05:03:38;28.93;;;18.97;;
77384;SDS011;66443;49.122;8.346;2024-03-02T05:06:03;29.33;;;19.13;;
77384;SDS011;66443;49.122;8.346;2024-03-02T05:08:28;23.33;;;17.30;;
77384;SDS011;66443;49.122;8.346;2024-03-02T05:10:53;24.30;;;16.27;;
77384;SDS011;66443;49.122;8.346;2024-03-02T05:13:19;20.77;;;16.73;;
77384;SDS011;66443;49.122;8.346;2024-03-02T05:15:45;19.33;;;16.03;;
77384;SDS011;66443;49.122;8.346;2024-03-02T05:18:11;28.73;;;17.47;;
77384;SDS011;66443;49.122;8.346;2024-03-02T05:20:36;28.90;;;18.90;;
77384;SDS011;66443;49.122;8.346;2024-03-02T05:23:02;27.80;;;16.80;;
77384;SDS011;66443;49.122;8.346;2024-03-02T05:25:27;24.10;;;14.30;;
77384;SDS011;66443;49.122;8.346;2024-03-02T05:27:52;37.60;;;22.50;;
77384;SDS011;66443;49.122;8.346;2024-03-02T05:30:17;47.33;;;27.33;;
77384;SDS011;66443;49.122;8.346;2024-03-02T05:32:42;23.70;;;17.63;;
77384;SDS011;66443;49.122;8.346;2024-03-02T05:35:08;31.70;;;22.57;;
77384;SDS011;66443;49.122;8.346;2024-03-02T05:37:33;25.17;;;17.90;;
77384;SDS011;66443;49.122;8.346;2024-03-02T05:39:59;23.53;;;15.50;;
77384;SDS011;66443;49.122;8.346;2024-03-02T05:42:24;17.93;;;14.63;;
77384;SDS011;66443;49.122;8.346;2024-03-02T05:44:49;20.60;;;15.63;;
77384;SDS011;66443;49.122;8.346;2024-03-02T05:47:14;19.17;;;14.20;;
77384;SDS011;66443;49.122;8.346;2024-03-02T05:49:40;17.63;;;13.23;;
77384;SDS011;66443;49.122;8.346;2024-03-02T05:52:05;16.27;;;14.03;;
77384;SDS011;66443;49.122;8.346;2024-03-02T05:54:30;16.30;;;13.40;;
77384;SDS011;66443;49.122;8.346;2024-03-02T05:56:55;20.40;;;13.87;;
77384;SDS011;66443;49.122;8.346;2024-03-02T05:59:20;16.93;;;13.23;;
77384;SDS011;66443;49.122;8.346;2024-03-02T06:01:46;19.83;;;13.63;;
77384;SDS011;66443;49.122;8.346;2024-03-02T06:04:12;24.73;;;16.20;;
77384;SDS011;66443;49.122;8.346;2024-03-02T06:06:37;18.57;;;14.83;;
77384;SDS011;66443;49.122;8.346;2024-03-02T06:09:03;21.33;;;14.60;;
77384;SDS011;66443;49.122;8.346;2024-03-02T06:11:35;27.07;;;16.83;;
77384;SDS011;66443;49.122;8.346;2024-03-02T06:14:01;17.63;;;14.53;;
77384;SDS011;66443;49.122;8.346;2024-03-02T06:16:26;18.47;;;13.43;;
77384;SDS011;66443;49.122;8.346;2024-03-02T06:18:52;22.97;;;14.03;;
77384;SDS011;66443;49.122;8.346;2024-03-02T06:21:18;24.90;;;15.33;;
77384;SDS011;66443;49.122;8.346;2024-03-02T06:23:44;24.50;;;16.23;;
77384;SDS011;66443;49.122;8.346;2024-03-02T06:26:09;23.13;;;15.30;;
77384;SDS011;66443;49.122;8.346;2024-03-02T06:28:34;21.13;;;13.47;;
77384;SDS011;66443;49.122;8.346;2024-03-02T06:31:00;16.60;;;13.32;;
77384;SDS011;66443;49.122;8.346;2024-03-02T06:33:25;19.83;;;14.23;;
77384;SDS011;66443;49.122;8.346;2024-03-02T06:35:51;23.30;;;16.27;;
77384;SDS011;66443;49.122;8.346;2024-03-02T06:38:16;16.63;;;14.37;;
77384;SDS011;66443;49.122;8.346;2024-03-02T06:40:41;19.20;;;14.97;;
77384;SDS011;66443;49.122;8.346;2024-03-02T06:43:06;18.03;;;14.43;;
77384;SDS011;66443;49.122;8.346;2024-03-02T06:45:32;16.60;;;14.40;;
77384;SDS011;66443;49.122;8.346;2024-03-02T06:47:59;18.50;;;13.83;;
77384;SDS011;66443;49.122;8.346;2024-03-02T06:50:24;21.63;;;14.47;;
77384;SDS011;66443;49.122;8.346;2024-03-02T06:52:50;17.30;;;13.33;;
77384;SDS011;66443;49.122;8.346;2024-03-02T06:55:15;16.27;;;14.30;;
77384;SDS011;66443;49.122;8.346;2024-03-02T06:57:40;24.83;;;17.17;;
77384;SDS011;66443;49.122;8.346;2024-03-02T07:00:06;23.83;;;17.10;;
77384;SDS011;66443;49.122;8.346;2024-03-02T07:02:33;25.27;;;18.20;;
77384;SDS011;66443;49.122;8.346;2024-03-02T07:04:58;28.57;;;17.93;;
77384;SDS011;66443;49.122;8.346;2024-03-02T07:07:24;28.60;;;19.20;;
77384;SDS011;66443;49.122;8.346;2024-03-02T07:09:49;26.77;;;17.30;;
77384;SDS011;66443;49.122;8.346;2024-03-02T07:12:14;25.73;;;17.83;;
77384;SDS011;66443;49.122;8.346;2024-03-02T07:14:39;27.30;;;17.30;;
77384;SDS011;66443;49.122;8.346;2024-03-02T07:17:23;28.07;;;19.23;;
77384;SDS011;66443;49.122;8.346;2024-03-02T07:19:48;24.47;;;18.07;;
77384;SDS011;66443;49.122;8.346;2024-03-02T07:22:14;25.57;;;18.07;;
77384;SDS011;66443;49.122;8.346;2024-03-02T07:24:39;28.03;;;17.93;;
77384;SDS011;66443;49.122;8.346;2024-03-02T07:27:05;25.10;;;19.47;;
77384;SDS011;66443;49.122;8.346;2024-03-02T07:29:31;34.60;;;20.63;;
77384;SDS011;66443;49.122;8.346;2024-03-02T07:31:56;27.40;;;20.85;;
77384;SDS011;66443;49.122;8.346;2024-03-02T07:34:21;28.80;;;20.30;;
77384;SDS011;66443;49.122;8.346;2024-03-02T07:36:46;31.63;;;21.13;;
77384;SDS011;66443;49.122;8.346;2024-03-02T07:39:12;31.50;;;20.93;;
77384;SDS011;66443;49.122;8.346;2024-03-02T07:41:37;38.37;;;20.73;;
77384;SDS011;66443;49.122;8.346;2024-03-02T07:44:02;32.80;;;23.33;;
77384;SDS011;66443;49.122;8.346;2024-03-02T07:46:27;35.30;;;22.50;;
77384;SDS011;66443;49.122;8.346;2024-03-02T07:48:52;30.87;;;20.87;;
77384;SDS011;66443;49.122;8.346;2024-03-02T07:51:17;25.53;;;19.57;;
77384;SDS011;66443;49.122;8.346;2024-03-02T07:53:43;25.73;;;17.53;;
77384;SDS011;66443;49.122;8.346;2024-03-02T07:56:08;20.73;;;16.48;;
77384;SDS011;66443;49.122;8.346;2024-03-02T07:58:33;19.47;;;16.67;;
77384;SDS011;66443;49.122;8.346;2024-03-02T08:00:59;21.23;;;16.10;;
77384;SDS011;66443;49.122;8.346;2024-03-02T08:03:26;21.33;;;16.50;;
77384;SDS011;66443;49.122;8.346;2024-03-02T08:05:51;16.93;;;14.40;;
77384;SDS011;66443;49.122;8.346;2024-03-02T08:08:16;16.17;;;14.47;;
77384;SDS011;66443;49.122;8.346;2024-03-02T08:10:41;15.33;;;13.80;;
77384;SDS011;66443;49.122;8.346;2024-03-02T08:13:06;16.60;;;13.93;;
77384;SDS011;66443;49.122;8.346;2024-03-02T08:15:32;19.23;;;16.23;;
77384;SDS011;66443;49.122;8.346;2024-03-02T08:17:57;25.80;;;18.50;;
77384;SDS011;66443;49.122;8.346;2024-03-02T08:20:22;22.00;;;17.67;;
77384;SDS011;66443;49.122;8.346;2024-03-02T08:22:47;21.83;;;17.23;;
77384;SDS011;66443;49.122;8.346;2024-03-02T08:25:12;19.63;;;17.13;;
77384;SDS011;66443;49.122;8.346;2024-03-02T08:27:38;18.63;;;16.70;;
77384;SDS011;66443;49.122;8.346;2024-03-02T08:30:03;22.63;;;16.37;;
77384;SDS011;66443;49.122;8.346;2024-03-02T08:32:31;17.37;;;14.93;;
77384;SDS011;66443;49.122;8.346;2024-03-02T08:34:56;18.20;;;14.40;;
77384;SDS011;66443;49.122;8.346;2024-03-02T08:37:21;15.70;;;14.10;;
77384;SDS011;66443;49.122;8.346;2024-03-02T08:39:47;13.52;;;12.20;;
77384;SDS011;66443;49.122;8.346;2024-03-02T08:42:12;13.47;;;12.17;;
77384;SDS011;66443;49.122;8.346;2024-03-02T08:44:37;13.87;;;12.47;;
77384;SDS011;66443;49.122;8.346;2024-03-02T08:47:02;10.90;;;10.00;;
77384;SDS011;66443;49.122;8.346;2024-03-02T08:49:28;10.53;;;9.43;;
77384;SDS011;66443;49.122;8.346;2024-03-02T08:51:53;9.67;;;8.67;;
77384;SDS011;66443;49.122;8.346;2024-03-02T08:54:21;7.80;;;7.10;;
77384;SDS011;66443;49.122;8.346;2024-03-02T08:56:47;6.40;;;5.80;;
77384;SDS011;66443;49.122;8.346;2024-03-02T08:59:12;6.13;;;5.60;;
77384;SDS011;66443;49.122;8.346;2024-03-02T09:01:37;5.27;;;4.80;;
77384;SDS011;66443;49.122;8.346;2024-03-02T09:04:06;5.00;;;4.60;;
77384;SDS011;66443;49.122;8.346;2024-03-02T09:06:32;4.53;;;4.13;;
77384;SDS011;66443;49.122;8.346;2024-03-02T09:08:57;4.97;;;4.57;;
77384;SDS011;66443;49.122;8.346;2024-03-02T09:11:22;4.60;;;4.20;;
77384;SDS011;66443;49.122;8.346;2024-03-02T09:13:47;5.13;;;4.60;;
77384;SDS011;66443;49.122;8.346;2024-03-02T09:16:13;5.50;;;5.00;;
77384;SDS011;66443;49.122;8.346;2024-03-02T09:18:38;5.67;;;4.67;;
77384;SDS011;66443;49.122;8.346;2024-03-02T09:21:03;4.60;;;4.20;;
77384;SDS011;66443;49.122;8.346;2024-03-02T09:23:29;4.67;;;4.27;;
77384;SDS011;66443;49.122;8.346;2024-03-02T09:25:54;4.70;;;4.30;;
77384;SDS011;66443;49.122;8.346;2024-03-02T09:28:19;4.70;;;4.30;;
77384;SDS011;66443;49.122;8.346;2024-03-02T09:30:45;5.07;;;4.67;;
77384;SDS011;66443;49.122;8.346;2024-03-02T09:33:10;4.30;;;3.90;;
77384;SDS011;66443;49.122;8.346;2024-03-02T09:35:35;3.90;;;3.60;;
77384;SDS011;66443;49.122;8.346;2024-03-02T09:38:00;5.63;;;5.13;;
77384;SDS011;66443;49.122;8.346;2024-03-02T09:40:25;4.90;;;4.50;;
77384;SDS011;66443;49.122;8.346;2024-03-02T09:42:50;6.30;;;5.10;;
77384;SDS011;66443;49.122;8.346;2024-03-02T09:45:22;5.90;;;5.33;;
77384;SDS011;66443;49.122;8.346;2024-03-02T09:47:47;7.70;;;5.30;;
77384;SDS011;66443;49.122;8.346;2024-03-02T09:50:13;6.20;;;5.60;;
77384;SDS011;66443;49.122;8.346;2024-03-02T09:52:38;5.53;;;4.93;;
77384;SDS011;66443;49.122;8.346;2024-03-02T09:55:04;4.97;;;4.57;;
77384;SDS011;66443;49.122;8.346;2024-03-02T09:57:30;5.67;;;4.50;;
77384;SDS011;66443;49.122;8.346;2024-03-02T09:59:55;5.47;;;4.90;;
77384;SDS011;66443;49.122;8.346;2024-03-02T10:02:20;4.73;;;4.13;;
77384;SDS011;66443;49.122;8.346;2024-03-02T10:04:48;5.90;;;5.10;;
77384;SDS011;66443;49.122;8.346;2024-03-02T10:07:14;5.00;;;4.47;;
77384;SDS011;66443;49.122;8.346;2024-03-02T10:09:40;6.83;;;6.13;;
77384;SDS011;66443;49.122;8.346;2024-03-02T10:12:06;6.67;;;5.40;;
77384;SDS011;66443;49.122;8.346;2024-03-02T10:14:32;4.80;;;4.40;;
77384;SDS011;66443;49.122;8.346;2024-03-02T10:17:07;4.40;;;3.93;;
77384;SDS011;66443;49.122;8.346;2024-03-02T10:19:33;6.57;;;4.23;;
77384;SDS011;66443;49.122;8.346;2024-03-02T10:21:59;3.40;;;3.10;;
77384;SDS011;66443;49.122;8.346;2024-03-02T10:24:25;3.50;;;3.20;;
77384;SDS011;66443;49.122;8.346;2024-03-02T10:26:50;3.40;;;3.20;;
77384;SDS011;66443;49.122;8.346;2024-03-02T10:29:16;3.80;;;3.50;;
77384;SDS011;66443;49.122;8.346;2024-03-02T10:31:42;2.97;;;2.67;;
77384;SDS011;66443;49.122;8.346;2024-03-02T10:34:08;3.93;;;2.80;;
77384;SDS011;66443;49.122;8.346;2024-03-02T10:36:34;3.30;;;3.00;;
77384;SDS011;66443;49.122;8.346;2024-03-02T10:39:03;3.20;;;3.00;;
77384;SDS011;66443;49.122;8.346;2024-03-02T10:41:29;3.57;;;2.93;;
77384;SDS011;66443;49.122;8.346;2024-03-02T10:43:54;2.70;;;2.50;;
77384;SDS011;66443;49.122;8.346;2024-03-02T10:46:28;3.87;;;3.57;;
77384;SDS011;66443;49.122;8.346;2024-03-02T10:48:54;3.33;;;3.13;;
77384;SDS011;66443;49.122;8.346;2024-03-02T10:51:20;4.10;;;3.80;;
77384;SDS011;66443;49.122;8.346;2024-03-02T10:53:45;2.83;;;2.40;;
77384;SDS011;66443;49.122;8.346;2024-03-02T10:56:10;3.40;;;3.10;;
77384;SDS011;66443;49.122;8.346;2024-03-02T10:58:38;3.33;;;3.13;;
77384;SDS011;66443;49.122;8.346;2024-03-02T11:01:03;2.97;;;2.77;;
77384;SDS011;66443;49.122;8.346;2024-03-02T11:03:31;3.97;;;3.20;;
77384;SDS011;66443;49.122;8.346;2024-03-02T11:05:58;3.53;;;3.00;;
77384;SDS011;66443;49.122;8.346;2024-03-02T11:08:24;3.47;;;2.90;;
77384;SDS011;66443;49.122;8.346;2024-03-02T11:10:52;2.97;;;2.77;;
77384;SDS011;66443;49.122;8.346;2024-03-02T11:13:22;2.77;;;2.57;;
77384;SDS011;66443;49.122;8.346;2024-03-02T11:15:49;3.43;;;3.07;;
77384;SDS011;66443;49.122;8.346;2024-03-02T11:18:16;3.43;;;2.70;;
77384;SDS011;66443;49.122;8.346;2024-03-02T11:20:41;2.97;;;2.60;;
77384;SDS011;66443;49.122;8.346;2024-03-02T11:23:07;3.10;;;2.80;;
77384;SDS011;66443;49.122;8.346;2024-03-02T11:25:34;2.47;;;2.27;;
77384;SDS011;66443;49.122;8.346;2024-03-02T11:28:00;2.80;;;2.60;;
77384;SDS011;66443;49.122;8.346;2024-03-02T11:32:58;2.13;;;1.83;;
77384;SDS011;66443;49.122;8.346;2024-03-02T11:35:26;2.50;;;2.03;;
77384;SDS011;66443;49.122;8.346;2024-03-02T11:37:52;1.67;;;1.57;;
77384;SDS011;66443;49.122;8.346;2024-03-02T11:40:27;1.47;;;1.37;;
77384;SDS011;66443;49.122;8.346;2024-03-02T11:42:52;1.33;;;1.23;;
77384;SDS011;66443;49.122;8.346;2024-03-02T11:45:22;1.43;;;1.33;;
77384;SDS011;66443;49.122;8.346;2024-03-02T11:47:50;1.50;;;1.40;;
77384;SDS011;66443;49.122;8.346;2024-03-02T11:50:28;1.30;;;1.20;;
77384;SDS011;66443;49.122;8.346;2024-03-02T11:52:53;1.73;;;1.40;;
77384;SDS011;66443;49.122;8.346;2024-03-02T11:55:18;1.30;;;1.20;;
77384;SDS011;66443;49.122;8.346;2024-03-02T11:57:44;1.93;;;1.27;;
77384;SDS011;66443;49.122;8.346;2024-03-02T12:00:16;1.20;;;1.10;;
77384;SDS011;66443;49.122;8.346;2024-03-02T12:02:42;1.63;;;1.53;;
77384;SDS011;66443;49.122;8.346;2024-03-02T12:05:10;1.37;;;1.27;;
77384;SDS011;66443;49.122;8.346;2024-03-02T12:07:35;1.03;;;1.00;;
77384;SDS011;66443;49.122;8.346;2024-03-02T12:10:00;0.80;;;0.80;;
77384;SDS011;66443;49.122;8.346;2024-03-02T12:12:30;0.80;;;0.80;;
77384;SDS011;66443;49.122;8.346;2024-03-02T12:14:55;0.73;;;0.73;;
77384;SDS011;66443;49.122;8.346;2024-03-02T12:17:21;0.97;;;0.93;;
77384;SDS011;66443;49.122;8.346;2024-03-02T12:19:47;1.10;;;1.00;;
77384;SDS011;66443;49.122;8.346;2024-03-02T12:22:12;1.00;;;1.00;;
77384;SDS011;66443;49.122;8.346;2024-03-02T12:24:37;1.17;;;1.07;;
77384;SDS011;66443;49.122;8.346;2024-03-02T12:27:03;1.30;;;1.20;;
77384;SDS011;66443;49.122;8.346;2024-03-02T12:29:28;1.20;;;1.10;;
77384;SDS011;66443;49.122;8.346;2024-03-02T12:31:54;1.10;;;1.00;;
77384;SDS011;66443;49.122;8.346;2024-03-02T12:34:19;0.83;;;0.83;;
77384;SDS011;66443;49.122;8.346;2024-03-02T12:36:45;1.27;;;0.90;;
77384;SDS011;66443;49.122;8.346;2024-03-02T12:39:12;1.67;;;1.43;;
77384;SDS011;66443;49.122;8.346;2024-03-02T12:41:38;0.90;;;0.90;;
77384;SDS011;66443;49.122;8.346;2024-03-02T12:44:06;0.80;;;0.80;;
77384;SDS011;66443;49.122;8.346;2024-03-02T12:46:32;1.43;;;1.20;;
77384;SDS011;66443;49.122;8.346;2024-03-02T12:48:57;1.77;;;1.00;;
77384;SDS011;66443;49.122;8.346;2024-03-02T12:51:24;1.00;;;0.90;;
77384;SDS011;66443;49.122;8.346;2024-03-02T12:53:55;1.17;;;1.07;;
77384;SDS011;66443;49.122;8.346;2024-03-02T12:56:21;1.10;;;1.00;;
77384;SDS011;66443;49.122;8.346;2024-03-02T12:58:46;2.10;;;1.20;;
77384;SDS011;66443;49.122;8.346;2024-03-02T13:01:14;1.10;;;1.10;;
77384;SDS011;66443;49.122;8.346;2024-03-02T13:03:40;0.95;;;0.95;;
77384;SDS011;66443;49.122;8.346;2024-03-02T13:06:06;1.50;;;1.40;;
77384;SDS011;66443;49.122;8.346;2024-03-02T13:08:32;1.10;;;1.05;;
77384;SDS011;66443;49.122;8.346;2024-03-02T13:10:57;1.33;;;1.23;;
77384;SDS011;66443;49.122;8.346;2024-03-02T13:13:23;1.20;;;1.15;;
77384;SDS011;66443;49.122;8.346;2024-03-02T13:15:48;1.40;;;1.30;;
77384;SDS011;66443;49.122;8.346;2024-03-02T13:18:14;1.10;;;1.10;;
77384;SDS011;66443;49.122;8.346;2024-03-02T13:20:39;1.30;;;1.20;;
77384;SDS011;66443;49.122;8.346;2024-03-02T13:23:05;1.40;;;1.30;;
77384;SDS011;66443;49.122;8.346;2024-03-02T13:25:30;1.17;;;1.17;;
77384;SDS011;66443;49.122;8.346;2024-03-02T13:27:56;1.33;;;1.08;;
77384;SDS011;66443;49.122;8.346;2024-03-02T13:30:21;1.40;;;1.30;;
77384;SDS011;66443;49.122;8.346;2024-03-02T13:32:47;1.70;;;1.60;;
77384;SDS011;66443;49.122;8.346;2024-03-02T13:35:12;1.00;;;1.00;;
77384;SDS011;66443;49.122;8.346;2024-03-02T13:37:37;2.55;;;1.70;;
77384;SDS011;66443;49.122;8.346;2024-03-02T13:40:02;1.30;;;1.20;;
77384;SDS011;66443;49.122;8.346;2024-03-02T13:42:29;1.30;;;1.20;;
77384;SDS011;66443;49.122;8.346;2024-03-02T13:44:55;1.17;;;1.17;;
77384;SDS011;66443;49.122;8.346;2024-03-02T13:47:20;1.60;;;1.40;;
77384;SDS011;66443;49.122;8.346;2024-03-02T13:49:46;1.60;;;1.50;;
77384;SDS011;66443;49.122;8.346;2024-03-02T13:52:13;1.40;;;1.30;;
77384;SDS011;66443;49.122;8.346;2024-03-02T13:54:42;1.48;;;1.33;;
77384;SDS011;66443;49.122;8.346;2024-03-02T13:57:08;2.20;;;1.45;;
77384;SDS011;66443;49.122;8.346;2024-03-02T13:59:34;1.50;;;1.40;;
77384;SDS011;66443;49.122;8.346;2024-03-02T14:02:00;1.60;;;1.50;;
77384;SDS011;66443;49.122;8.346;2024-03-02T14:04:25;1.52;;;1.42;;
77384;SDS011;66443;49.122;8.346;2024-03-02T14:06:50;1.70;;;1.60;;
77384;SDS011;66443;49.122;8.346;2024-03-02T14:09:15;1.73;;;1.63;;
77384;SDS011;66443;49.122;8.346;2024-03-02T14:11:41;1.58;;;1.48;;
77384;SDS011;66443;49.122;8.346;2024-03-02T14:14:06;6.18;;;2.03;;
77384;SDS011;66443;49.122;8.346;2024-03-02T14:16:31;1.60;;;1.50;;
77384;SDS011;66443;49.122;8.346;2024-03-02T14:18:56;2.05;;;1.95;;
77384;SDS011;66443;49.122;8.346;2024-03-02T14:21:21;1.83;;;1.73;;
77384;SDS011;66443;49.122;8.346;2024-03-02T14:23:47;2.27;;;2.07;;